Thunder radar more information blitzortung!


Radar de pluja more information rain snow radar


Visita la nostra xarxa de llocs de meteo:

Template documentation
and downloads

And another site



No particular awareness of the weather is required.    There are no Weather-warnings

Pagina Historial Weather Underground text

Diari Resum Octubre 4, 2017 Unitats:  Imperial    Mètric   Tant
« Previous Dia
SegĂźent Dia »
Diari Setmana Mensual Anual Personalitzada
  Maxima: Minima: Media:
Temperatura: TemperatureC °F 16.4 °F 20 °F
Punt de rosada: DewpointC °F 14.5 °F 16.4 °F
Humitat: Humidity % 66 % 80 %
Wind Speed: WindSpeedKMH mph 0.0 mph 3.5 mph
RĂ fegues de vent: WindSpeedGustKMH mph - -
Vent:- - East
Pression baro: PressurehPa in 1021.9 in -
Precipitacions: 0.0 in    
Historical Graphs
 
 
Dades de taula per Octubre 4, 2017
Temps Temperatura Punt de rosada Pression baro Vent Wind Speed RĂ fegues de vent Humitat Rainfall Rate (Hourly)
TemperatureC °F DewpointC °F PressurehPa in Calm     Humidity % HourlyPrecipMM in
00:00 19.1 °F 15.9 °F 1022.9 in Calm     82 % 0.0 in
00:05 19.0 °F 15.8 °F 1022.9 in SW 3.7 mph 3.7 mph 82 % 0.0 in
00:15 17.1 °F 14.9 °F 1022.9 in Calm     87 % 0.0 in
00:25 17.1 °F 14.9 °F 1022.9 in Calm   3.2 mph 87 % 0.0 in
00:35 17.0 °F 14.8 °F 1022.9 in Calm   1.6 mph 87 % 0.0 in
00:45 16.9 °F 14.7 °F 1022.9 in SSW 1.6 mph 3.2 mph 87 % 0.0 in
00:55 16.8 °F 14.6 °F 1022.9 in SW 3.2 mph 3.2 mph 87 % 0.0 in
01:05 16.7 °F 14.5 °F 1022.9 in SW 1.6 mph 3.2 mph 87 % 0.0 in
01:15 16.7 °F 14.7 °F 1022.9 in SW 1.6 mph 3.2 mph 88 % 0.0 in
01:25 16.8 °F 14.8 °F 1022.9 in Calm     88 % 0.0 in
01:35 16.8 °F 14.8 °F 1022.9 in WSW 1.6 mph 3.2 mph 88 % 0.0 in
01:45 16.8 °F 14.8 °F 1022.9 in Calm   1.6 mph 88 % 0.0 in
01:55 16.7 °F 14.7 °F 1022.9 in Calm   1.6 mph 88 % 0.0 in
02:05 16.7 °F 14.9 °F 1022.9 in Calm     89 % 0.0 in
02:15 16.7 °F 14.9 °F 1022.9 in Calm     89 % 0.0 in
02:25 16.7 °F 14.9 °F 1022.9 in Calm     89 % 0.0 in
02:35 16.7 °F 14.9 °F 1022.9 in Calm     89 % 0.0 in
02:45 16.7 °F 14.9 °F 1023.9 in Calm     89 % 0.0 in
02:55 16.6 °F 14.8 °F 1022.9 in Calm     89 % 0.0 in
03:05 16.5 °F 14.7 °F 1022.9 in Calm     89 % 0.0 in
03:15 16.4 °F 14.6 °F 1022.9 in Calm     89 % 0.0 in
03:25 16.4 °F 14.8 °F 1023.9 in Calm     90 % 0.0 in
03:35 16.5 °F 14.8 °F 1023.9 in Calm     90 % 0.0 in
03:45 16.6 °F 14.9 °F 1023.9 in Calm     90 % 0.0 in
03:55 17.2 °F 15.7 °F 1023.9 in Calm     91 % 0.0 in
04:05 17.7 °F 16.1 °F 1023.9 in Calm     90 % 0.0 in
04:15 18.0 °F 16.0 °F 1023.9 in East 1.6 mph 4.8 mph 88 % 0.0 in
04:25 18.4 °F 16.2 °F 1023.9 in Calm   4.8 mph 87 % 0.0 in
04:35 18.2 °F 15.6 °F 1023.9 in SSE 1.6 mph 3.2 mph 85 % 0.0 in
04:45 18.4 °F 15.8 °F 1023.9 in Calm   1.6 mph 85 % 0.0 in
04:55 19.6 °F 16.8 °F 1023.9 in NW 1.6 mph 3.2 mph 84 % 0.0 in
05:05 20.0 °F 16.8 °F 1023.9 in NNE 1.6 mph 3.2 mph 82 % 0.0 in
05:30 19.7 °F 15.9 °F 1024.9 in ENE 1.6 mph 3.2 mph 79 % 0.0 in
05:40 19.9 °F 16.2 °F 1024.9 in ENE 1.6 mph 3.2 mph 79 % 0.0 in
05:50 20.0 °F 16.1 °F 1024.9 in East 1.6 mph 4.8 mph 78 % 0.0 in
06:00 20.1 °F 16.2 °F 1024.9 in ENE 1.6 mph 3.2 mph 78 % 0.0 in
06:10 20.3 °F 16.3 °F 1024.9 in NE 1.6 mph 3.2 mph 78 % 0.0 in
06:20 20.5 °F 16.6 °F 1026.0 in East 4.8 mph 6.4 mph 78 % 0.0 in
06:30 20.9 °F 16.9 °F 1024.9 in ENE 3.2 mph 4.8 mph 78 % 0.0 in
06:40 21.4 °F 17.2 °F 1024.9 in ENE 3.2 mph 6.4 mph 77 % 0.0 in
06:50 21.8 °F 17.4 °F 1024.9 in ENE 4.8 mph 6.4 mph 76 % 0.0 in
07:00 22.3 °F 17.9 °F 1026.0 in ENE 3.2 mph 6.4 mph 76 % 0.0 in
07:10 22.8 °F 17.7 °F 1026.0 in ESE 4.8 mph 9.7 mph 73 % 0.0 in
07:20 23.2 °F 18.1 °F 1024.9 in ESE 1.6 mph 4.8 mph 73 % 0.0 in
07:30 22.8 °F 17.7 °F 1024.9 in East 8.0 mph 11.3 mph 73 % 0.0 in
07:40 23.2 °F 17.9 °F 1024.9 in ENE 4.8 mph 6.4 mph 72 % 0.0 in
07:50 23.3 °F 17.7 °F 1024.9 in ENE 3.2 mph 8.0 mph 71 % 0.0 in
08:00 22.9 °F 17.6 °F 1026.0 in ENE 4.8 mph 9.7 mph 72 % 0.0 in
08:10 22.9 °F 17.6 °F 1026.0 in ENE 8.0 mph 8.0 mph 72 % 0.0 in
08:20 23.1 °F 17.8 °F 1024.9 in ENE 4.8 mph 6.4 mph 72 % 0.0 in
08:30 23.7 °F 18.1 °F 1024.9 in East 4.8 mph 11.3 mph 71 % 0.0 in
08:40 23.6 °F 17.8 °F 1024.9 in East 11.3 mph 12.9 mph 70 % 0.0 in
08:50 23.7 °F 17.9 °F 1024.9 in ESE 9.7 mph 14.5 mph 70 % 0.0 in
09:00 24.3 °F 18.2 °F 1024.9 in ESE 4.8 mph 9.7 mph 69 % 0.0 in
09:10 23.8 °F 17.8 °F 1024.9 in East 8.0 mph 12.9 mph 69 % 0.0 in
09:20 24.0 °F 17.7 °F 1023.9 in ESE 9.7 mph 12.9 mph 68 % 0.0 in
09:30 24.6 °F 18.1 °F 1023.9 in ESE 3.2 mph 11.3 mph 67 % 0.0 in
09:40 24.2 °F 17.4 °F 1023.9 in ESE 4.8 mph 6.4 mph 66 % 0.0 in
09:50 23.6 °F 17.3 °F 1023.9 in SE 11.3 mph 14.5 mph 68 % 0.0 in
10:00 23.1 °F 17.1 °F 1023.9 in ESE 11.3 mph 17.7 mph 69 % 0.0 in
10:10 22.9 °F 17.3 °F 1023.9 in ESE 11.3 mph 16.1 mph 71 % 0.0 in
10:12 19.6 °F 16.1 °F 1023.9 in NE 4.7 mph 4.7 mph 80 % 0.0 in
10:13 19.6 °F 16.1 °F 1023.9 in NE 5.6 mph 5.6 mph 80 % 0.0 in
10:18 19.6 °F 16.1 °F 1024.9 in ENE 3.7 mph 3.7 mph 80 % 0.0 in
10:20 23.1 °F 17.6 °F 1023.9 in East 8.0 mph 14.5 mph 71 % 0.0 in
10:23 19.7 °F 16.2 °F 1024.9 in ENE 2.6 mph 3.5 mph 80 % 0.0 in
10:28 19.7 °F 16.2 °F 1024.9 in ENE 2.6 mph 3.5 mph 80 % 0.0 in
10:30 23.0 °F 17.2 °F 1023.9 in ESE 12.9 mph 12.9 mph 70 % 0.0 in
10:33 19.7 °F 16.2 °F 1024.9 in ENE 2.6 mph 3.5 mph 80 % 0.0 in
10:38 19.7 °F 16.2 °F 1024.9 in ENE 2.6 mph 3.5 mph 80 % 0.0 in
10:40 22.6 °F 17.3 °F 1023.9 in East 8.0 mph 9.7 mph 72 % 0.0 in
10:43 19.7 °F 16.2 °F 1024.9 in ENE 2.6 mph 3.5 mph 80 % 0.0 in
10:48 19.7 °F 16.2 °F 1024.9 in ENE 2.6 mph 3.5 mph 80 % 0.0 in
10:50 22.6 °F 17.3 °F 1023.9 in East 11.3 mph 14.5 mph 72 % 0.0 in
10:53 19.7 °F 16.2 °F 1024.9 in ENE 2.6 mph 3.5 mph 80 % 0.0 in
10:58 19.7 °F 16.2 °F 1024.9 in ENE 2.6 mph 3.5 mph 80 % 0.0 in
11:00 22.6 °F 17.3 °F 1022.9 in ESE 4.8 mph 12.9 mph 72 % 0.0 in
11:03 19.7 °F 16.2 °F 1024.9 in ENE 2.6 mph 3.5 mph 80 % 0.0 in
11:08 19.7 °F 16.2 °F 1024.9 in ENE 2.6 mph 3.5 mph 80 % 0.0 in
11:10 22.4 °F 17.1 °F 1022.9 in ESE 9.7 mph 16.1 mph 72 % 0.0 in
11:13 19.7 °F 16.2 °F 1024.9 in ENE 2.6 mph 3.5 mph 80 % 0.0 in
11:18 19.7 °F 16.2 °F 1024.9 in ENE 2.6 mph 3.5 mph 80 % 0.0 in
11:20 22.4 °F 17.1 °F 1023.9 in ESE 4.8 mph 11.3 mph 72 % 0.0 in
11:23 19.7 °F 16.2 °F 1024.9 in ENE 2.6 mph 3.5 mph 80 % 0.0 in
11:28 19.7 °F 16.2 °F 1024.9 in ENE 2.6 mph 3.5 mph 80 % 0.0 in
11:30 22.1 °F 16.8 °F 1022.9 in ESE 9.7 mph 14.5 mph 72 % 0.0 in
11:33 19.7 °F 16.2 °F 1024.9 in ENE 2.6 mph 3.5 mph 80 % 0.0 in
11:38 19.7 °F 16.2 °F 1024.9 in ENE 2.6 mph 3.5 mph 80 % 0.0 in
11:40 22.1 °F 16.8 °F 1022.9 in ESE 11.3 mph 12.9 mph 72 % 0.0 in
11:43 19.7 °F 16.2 °F 1024.9 in ENE 2.6 mph 3.5 mph 80 % 0.0 in
11:48 19.7 °F 16.2 °F 1024.9 in ENE 2.6 mph 3.5 mph 80 % 0.0 in
11:53 19.7 °F 16.2 °F 1024.9 in ENE 2.6 mph 3.5 mph 80 % 0.0 in
11:58 19.7 °F 16.2 °F 1024.9 in ENE 2.6 mph 3.5 mph 80 % 0.0 in
12:03 19.7 °F 16.2 °F 1024.9 in ENE 2.6 mph 3.5 mph 80 % 0.0 in
12:08 19.7 °F 16.2 °F 1024.9 in ENE 2.6 mph 3.5 mph 80 % 0.0 in
12:13 19.7 °F 16.2 °F 1024.9 in ENE 2.6 mph 3.5 mph 80 % 0.0 in
12:18 19.7 °F 16.2 °F 1024.9 in ENE 2.6 mph 3.5 mph 80 % 0.0 in
12:23 19.7 °F 16.2 °F 1024.9 in ENE 2.6 mph 3.5 mph 80 % 0.0 in
12:28 19.7 °F 16.2 °F 1024.9 in ENE 2.6 mph 3.5 mph 80 % 0.0 in
12:33 19.7 °F 16.2 °F 1024.9 in ENE 2.6 mph 3.5 mph 80 % 0.0 in
12:38 19.7 °F 16.2 °F 1024.9 in ENE 2.6 mph 3.5 mph 80 % 0.0 in
12:43 19.7 °F 16.2 °F 1024.9 in ENE 2.6 mph 3.5 mph 80 % 0.0 in
12:48 19.7 °F 16.2 °F 1024.9 in ENE 2.6 mph 3.5 mph 80 % 0.0 in
12:53 19.7 °F 16.2 °F 1024.9 in ENE 2.6 mph 3.5 mph 80 % 0.0 in
12:58 19.7 °F 16.2 °F 1024.9 in ENE 2.6 mph 3.5 mph 80 % 0.0 in
13:03 19.7 °F 16.2 °F 1024.9 in ENE 2.6 mph 3.5 mph 80 % 0.0 in
13:08 19.7 °F 16.2 °F 1024.9 in ENE 2.6 mph 3.5 mph 80 % 0.0 in
13:13 19.7 °F 16.2 °F 1024.9 in ENE 2.6 mph 3.5 mph 80 % 0.0 in
13:23 19.7 °F 16.2 °F 1024.9 in ENE 2.6 mph 3.5 mph 80 % 0.0 in
13:28 19.7 °F 16.2 °F 1024.9 in ENE 2.6 mph 3.5 mph 80 % 0.0 in
13:33 19.7 °F 16.2 °F 1024.9 in ENE 2.6 mph 3.5 mph 80 % 0.0 in
13:38 19.7 °F 16.2 °F 1024.9 in ENE 2.6 mph 3.5 mph 80 % 0.0 in
13:43 19.7 °F 16.2 °F 1024.9 in ENE 2.6 mph 3.5 mph 80 % 0.0 in
13:48 19.7 °F 16.2 °F 1024.9 in ENE 2.6 mph 3.5 mph 80 % 0.0 in
13:53 19.7 °F 16.2 °F 1024.9 in ENE 2.6 mph 3.5 mph 80 % 0.0 in
13:58 19.7 °F 16.2 °F 1024.9 in ENE 2.6 mph 3.5 mph 80 % 0.0 in
14:03 19.7 °F 16.2 °F 1024.9 in ENE 2.6 mph 3.5 mph 80 % 0.0 in
14:08 19.7 °F 16.2 °F 1024.9 in ENE 2.6 mph 3.5 mph 80 % 0.0 in
14:13 19.7 °F 16.2 °F 1024.9 in ENE 2.6 mph 3.5 mph 80 % 0.0 in
14:18 19.7 °F 16.2 °F 1024.9 in ENE 2.6 mph 3.5 mph 80 % 0.0 in
14:23 19.7 °F 16.2 °F 1024.9 in ENE 2.6 mph 3.5 mph 80 % 0.0 in
14:28 19.7 °F 16.2 °F 1024.9 in ENE 2.6 mph 3.5 mph 80 % 0.0 in
14:33 19.7 °F 16.2 °F 1024.9 in ENE 2.6 mph 3.5 mph 80 % 0.0 in
14:38 19.7 °F 16.2 °F 1024.9 in ENE 2.6 mph 3.5 mph 80 % 0.0 in
14:43 19.7 °F 16.2 °F 1024.9 in ENE 2.6 mph 3.5 mph 80 % 0.0 in
14:48 19.7 °F 16.2 °F 1024.9 in ENE 2.6 mph 3.5 mph 80 % 0.0 in
14:53 19.7 °F 16.2 °F 1024.9 in ENE 2.6 mph 3.5 mph 80 % 0.0 in
14:58 19.7 °F 16.2 °F 1024.9 in ENE 2.6 mph 3.5 mph 80 % 0.0 in
15:03 19.7 °F 16.2 °F 1024.9 in ENE 2.6 mph 3.5 mph 80 % 0.0 in
15:08 19.7 °F 16.2 °F 1024.9 in ENE 2.6 mph 3.5 mph 80 % 0.0 in
15:13 19.7 °F 16.2 °F 1024.9 in ENE 2.6 mph 3.5 mph 80 % 0.0 in
15:18 19.7 °F 16.2 °F 1024.9 in ENE 2.6 mph 3.5 mph 80 % 0.0 in
15:23 19.7 °F 16.2 °F 1024.9 in ENE 2.6 mph 3.5 mph 80 % 0.0 in
15:28 19.7 °F 16.2 °F 1024.9 in ENE 2.6 mph 3.5 mph 80 % 0.0 in
15:33 19.7 °F 16.2 °F 1024.9 in ENE 2.6 mph 3.5 mph 80 % 0.0 in
15:38 19.7 °F 16.2 °F 1024.9 in ENE 2.6 mph 3.5 mph 80 % 0.0 in
15:43 19.7 °F 16.2 °F 1024.9 in ENE 2.6 mph 3.5 mph 80 % 0.0 in
15:48 19.7 °F 16.2 °F 1024.9 in ENE 2.6 mph 3.5 mph 80 % 0.0 in
15:53 19.7 °F 16.2 °F 1024.9 in ENE 2.6 mph 3.5 mph 80 % 0.0 in
15:59 19.7 °F 16.2 °F 1024.9 in ENE 2.6 mph 3.5 mph 80 % 0.0 in
16:04 19.7 °F 16.2 °F 1024.9 in ENE 2.6 mph 3.5 mph 80 % 0.0 in
16:09 19.7 °F 16.2 °F 1024.9 in ENE 2.6 mph 3.5 mph 80 % 0.0 in
16:14 19.7 °F 16.2 °F 1024.9 in ENE 2.6 mph 3.5 mph 80 % 0.0 in
16:19 19.7 °F 16.2 °F 1024.9 in ENE 2.6 mph 3.5 mph 80 % 0.0 in
16:24 19.7 °F 16.2 °F 1024.9 in ENE 2.6 mph 3.5 mph 80 % 0.0 in
16:29 19.7 °F 16.2 °F 1024.9 in ENE 2.6 mph 3.5 mph 80 % 0.0 in
16:34 19.7 °F 16.2 °F 1024.9 in ENE 2.6 mph 3.5 mph 80 % 0.0 in
16:40 22.1 °F 16.8 °F 1022.9 in ESE 10.3 mph 10.8 mph 72 % 0.0 in
16:45 22.3 °F 17.2 °F 1022.9 in NNE 9.3 mph 9.3 mph 73 % 0.0 in
16:50 22.3 °F 17.2 °F 1022.9 in ESE 14.8 mph 14.8 mph 73 % 0.0 in
16:55 22.2 °F 17.1 °F 1022.9 in ESE 16.7 mph 16.7 mph 73 % 0.0 in
17:00 22.1 °F 17.1 °F 1022.9 in ENE 14.8 mph 14.8 mph 73 % 0.0 in
17:05 22.2 °F 17.1 °F 1022.9 in ENE 14.8 mph 14.8 mph 73 % 0.0 in
17:10 22.3 °F 17.2 °F 1022.9 in ESE 9.7 mph 9.7 mph 73 % 0.0 in
17:15 22.2 °F 17.1 °F 1022.9 in East 9.3 mph 9.7 mph 73 % 0.0 in
17:20 22.2 °F 17.1 °F 1022.9 in East 13.0 mph 13.0 mph 73 % 0.0 in
17:25 22.1 °F 17.1 °F 1022.9 in East 10.3 mph 10.3 mph 73 % 0.0 in
17:30 22.0 °F 17.2 °F 1022.9 in ESE 13.0 mph 13.0 mph 74 % 0.0 in
17:35 22.0 °F 17.2 °F 1022.9 in East 9.3 mph 9.3 mph 74 % 0.0 in
17:40 22.0 °F 17.2 °F 1022.9 in East 9.3 mph 9.3 mph 74 % 0.0 in
17:45 22.0 °F 17.2 °F 1022.9 in North 9.0 mph 9.0 mph 74 % 0.0 in
17:50 21.8 °F 17.2 °F 1022.9 in ENE 9.3 mph 9.3 mph 75 % 0.0 in
17:55 21.8 °F 17.2 °F 1022.9 in SE 7.4 mph 7.4 mph 75 % 0.0 in
18:00 21.8 °F 17.2 °F 1022.9 in ENE 11.1 mph 11.1 mph 75 % 0.0 in
18:05 21.8 °F 17.2 °F 1022.9 in East 7.4 mph 7.4 mph 75 % 0.0 in
18:10 21.8 °F 17.2 °F 1022.9 in ENE 7.4 mph 7.4 mph 75 % 0.0 in
18:15 21.7 °F 17.3 °F 1023.9 in ESE 7.6 mph 7.6 mph 76 % 0.0 in
18:20 21.7 °F 17.3 °F 1023.9 in ENE 9.3 mph 9.3 mph 76 % 0.0 in
18:25 21.6 °F 17.2 °F 1023.9 in East 13.0 mph 13.0 mph 76 % 0.0 in
18:30 21.6 °F 17.2 °F 1023.9 in ENE 7.4 mph 7.4 mph 76 % 0.0 in
18:35 21.6 °F 17.4 °F 1023.9 in East 6.9 mph 6.9 mph 77 % 0.0 in
18:40 21.5 °F 17.3 °F 1023.9 in East 9.3 mph 9.3 mph 77 % 0.0 in
18:45 21.5 °F 17.3 °F 1022.9 in ENE 9.3 mph 9.3 mph 77 % 0.0 in
18:50 21.5 °F 17.3 °F 1022.9 in NNE 7.4 mph 7.4 mph 77 % 0.0 in
18:55 21.4 °F 17.4 °F 1022.9 in ESE 9.3 mph 9.3 mph 78 % 0.0 in
19:00 21.4 °F 17.4 °F 1022.9 in NE 9.3 mph 9.3 mph 78 % 0.0 in
19:05 21.3 °F 17.3 °F 1022.9 in ESE 9.3 mph 9.3 mph 78 % 0.0 in
19:10 21.3 °F 17.3 °F 1022.9 in SE 5.3 mph 5.3 mph 78 % 0.0 in
19:15 21.3 °F 17.3 °F 1023.9 in East 5.6 mph 5.6 mph 78 % 0.0 in
19:20 19.5 °F 17.1 °F 1023.9 in Calm     86 % 0.0 in
19:25 21.3 °F 17.5 °F 1023.9 in ESE 5.8 mph 5.8 mph 79 % 0.0 in
19:30 21.3 °F 17.5 °F 1023.9 in NNE 1.9 mph   79 % 0.0 in
19:35 21.2 °F 17.4 °F 1023.9 in SE 3.7 mph 3.7 mph 79 % 0.0 in
19:40 21.3 °F 17.5 °F 1023.9 in Calm     79 % 0.0 in
19:50 21.2 °F 17.2 °F 1023.9 in WSW 5.8 mph 5.8 mph 78 % 0.0 in
19:55 21.2 °F 17.2 °F 1023.9 in SW 1.9 mph   78 % 0.0 in
20:00 21.2 °F 17.0 °F 1022.9 in SW 3.7 mph 3.7 mph 77 % 0.0 in
20:05 21.1 °F 16.9 °F 1022.9 in SW 5.0 mph 5.0 mph 77 % 0.0 in
20:10 21.1 °F 16.9 °F 1022.9 in SW 2.6 mph   77 % 0.0 in
20:15 21.0 °F 16.8 °F 1023.9 in SW 2.6 mph 2.6 mph 77 % 0.0 in
20:20 20.9 °F 16.9 °F 1023.9 in SW 1.9 mph   78 % 0.0 in
20:25 20.8 °F 16.8 °F 1023.9 in Calm     78 % 0.0 in
20:30 20.8 °F 16.8 °F 1023.9 in SW 3.7 mph 3.7 mph 78 % 0.0 in
20:35 20.7 °F 16.7 °F 1023.9 in Calm     78 % 0.0 in
20:40 20.6 °F 16.8 °F 1023.9 in Calm     79 % 0.0 in
20:45 20.5 °F 16.7 °F 1022.9 in Calm     79 % 0.0 in
20:50 20.4 °F 16.6 °F 1022.9 in Calm     79 % 0.0 in
20:55 20.4 °F 16.6 °F 1022.9 in Calm     79 % 0.0 in
21:00 20.3 °F 16.6 °F 1023.9 in Calm     79 % 0.0 in
21:05 20.2 °F 16.6 °F 1023.9 in Calm     80 % 0.0 in
21:08 20.2 °F 16.6 °F 1023.9 in Calm     80 % 0.0 in
21:10 19.3 °F 17.1 °F 1023.9 in Calm     87 % 0.0 in
21:13 20.2 °F 16.6 °F 1023.9 in Calm     80 % 0.0 in
21:18 20.2 °F 16.6 °F 1023.9 in Calm     80 % 0.0 in
21:20 19.2 °F 17.0 °F 1022.9 in Calm     87 % 0.0 in
21:23 20.2 °F 16.8 °F 1023.9 in Calm     81 % 0.0 in
21:28 20.4 °F 17.1 °F 1023.9 in ESE 1.9 mph   81 % 0.0 in
21:30 19.1 °F 16.9 °F 1022.9 in Calm     87 % 0.0 in
21:33 20.3 °F 16.9 °F 1023.9 in Calm     81 % 0.0 in
21:38 20.3 °F 16.9 °F 1023.9 in Calm     81 % 0.0 in
21:40 19.1 °F 16.9 °F 1022.9 in SW 3.2 mph 3.2 mph 87 % 0.0 in
21:43 20.3 °F 16.9 °F 1023.9 in East 4.2 mph 4.2 mph 81 % 0.0 in
21:48 20.2 °F 16.8 °F 1023.9 in ENE 1.9 mph 2.3 mph 81 % 0.0 in
21:50 19.0 °F 16.8 °F 1022.9 in Calm   3.2 mph 87 % 0.0 in
21:53 20.1 °F 16.7 °F 1023.9 in East 3.7 mph 3.7 mph 81 % 0.0 in
21:54 20.1 °F 16.7 °F 1023.9 in East 3.7 mph 3.7 mph 81 % 0.0 in
21:59 20.1 °F 16.7 °F 1023.9 in East 3.7 mph 3.7 mph 81 % 0.0 in
22:00 18.8 °F 16.8 °F 1022.9 in WSW 1.6 mph 4.8 mph 88 % 0.0 in
22:04 20.0 °F 16.8 °F 1023.9 in South 1.9 mph   82 % 0.0 in
22:10 18.6 °F 16.6 °F 1022.9 in WSW 1.6 mph 4.8 mph 88 % 0.0 in
22:14 19.7 °F 16.6 °F 1023.9 in Calm     82 % 0.0 in
22:19 19.7 °F 16.6 °F 1023.9 in SE 1.9 mph   82 % 0.0 in
22:20 18.3 °F 16.3 °F 1022.9 in WSW 1.6 mph 3.2 mph 88 % 0.0 in
22:24 19.8 °F 16.8 °F 1023.9 in Calm     83 % 0.0 in
22:30 18.2 °F 16.2 °F 1021.9 in WSW 1.6 mph 3.2 mph 88 % 0.0 in
22:34 19.5 °F 16.6 °F 1024.9 in Calm     83 % 0.0 in
22:39 19.5 °F 16.6 °F 1024.9 in Calm     83 % 0.0 in
22:40 18.1 °F 16.1 °F 1021.9 in WSW 3.2 mph 4.8 mph 88 % 0.0 in
22:44 19.5 °F 16.6 °F 1024.9 in Calm     83 % 0.0 in
22:49 19.4 °F 16.6 °F 1024.9 in Calm     84 % 0.0 in
22:50 18.0 °F 16.0 °F 1021.9 in WSW 1.6 mph 4.8 mph 88 % 0.0 in
22:54 19.4 °F 16.6 °F 1024.9 in Calm     84 % 0.0 in
22:59 19.3 °F 16.5 °F 1024.9 in Calm     84 % 0.0 in
23:04 19.4 °F 16.6 °F 1024.9 in East 1.9 mph   84 % 0.0 in
23:09 19.4 °F 16.8 °F 1024.9 in Calm     85 % 0.0 in
23:10 17.6 °F 15.6 °F 1021.9 in WSW 1.6 mph 4.8 mph 88 % 0.0 in
23:14 19.4 °F 16.8 °F 1024.9 in Calm     85 % 0.0 in
23:20 17.6 °F 15.4 °F 1021.9 in WSW 1.6 mph 3.2 mph 87 % 0.0 in
23:24 19.3 °F 16.7 °F 1023.9 in ENE 2.6 mph   85 % 0.0 in
23:29 19.3 °F 16.7 °F 1023.9 in Calm     85 % 0.0 in
23:30 17.5 °F 15.3 °F 1021.9 in Calm   1.6 mph 87 % 0.0 in
23:34 19.3 °F 16.9 °F 1023.9 in Calm     86 % 0.0 in
23:39 19.4 °F 17.0 °F 1023.9 in Calm     86 % 0.0 in
23:40 17.5 °F 15.3 °F 1021.9 in Calm   3.2 mph 87 % 0.0 in
23:44 19.4 °F 17.0 °F 1023.9 in Calm     86 % 0.0 in
23:49 19.4 °F 17.0 °F 1023.9 in Calm     86 % 0.0 in
23:50 17.3 °F 15.1 °F 1021.9 in Calm     87 % 0.0 in
23:54 19.4 °F 17.0 °F 1023.9 in Calm     86 % 0.0 in
23:59 19.4 °F 17.0 °F 1024.9 in Calm     86 % 0.0 in
Meteo Sesrovires
Elogis d' Weather Underground - 3.75 mb

Guio original per  Jim McMurry - jmcmurry@mwt.net Adaptat per a la plantilla per  Wim van der Kuil - Leuven-Template.eu

Trobareu la nostra informacio del temps tambe a:

Weather Underground

AWEKAS